sensor_id;sensor_type;location;lat;lon;timestamp;temperature;humidity
20650;DHT22;10484;48.736;9.332;2023-12-28T00:00:26;3.00;1.00
20650;DHT22;10484;48.736;9.332;2023-12-28T00:02:52;3.00;1.00
20650;DHT22;10484;48.736;9.332;2023-12-28T00:05:39;3.00;1.00
20650;DHT22;10484;48.736;9.332;2023-12-28T00:08:05;3.00;1.00
20650;DHT22;10484;48.736;9.332;2023-12-28T00:10:31;3.00;1.00
20650;DHT22;10484;48.736;9.332;2023-12-28T00:12:56;2.90;1.00
20650;DHT22;10484;48.736;9.332;2023-12-28T00:18:44;2.90;1.00
20650;DHT22;10484;48.736;9.332;2023-12-28T00:21:09;2.90;1.00
20650;DHT22;10484;48.736;9.332;2023-12-28T00:23:35;2.90;1.00
20650;DHT22;10484;48.736;9.332;2023-12-28T00:26:00;2.90;1.00
20650;DHT22;10484;48.736;9.332;2023-12-28T00:28:26;2.80;1.00
20650;DHT22;10484;48.736;9.332;2023-12-28T00:30:51;2.80;1.00
20650;DHT22;10484;48.736;9.332;2023-12-28T00:33:17;2.80;1.00
20650;DHT22;10484;48.736;9.332;2023-12-28T00:35:42;2.80;1.00
20650;DHT22;10484;48.736;9.332;2023-12-28T00:38:08;2.80;1.00
20650;DHT22;10484;48.736;9.332;2023-12-28T00:40:34;2.80;1.00
20650;DHT22;10484;48.736;9.332;2023-12-28T00:42:59;2.80;1.00
20650;DHT22;10484;48.736;9.332;2023-12-28T00:45:25;2.70;1.00
20650;DHT22;10484;48.736;9.332;2023-12-28T00:47:50;2.70;1.00
20650;DHT22;10484;48.736;9.332;2023-12-28T00:50:17;2.70;1.00
20650;DHT22;10484;48.736;9.332;2023-12-28T00:52:43;2.70;1.00
20650;DHT22;10484;48.736;9.332;2023-12-28T00:55:09;2.70;1.00
20650;DHT22;10484;48.736;9.332;2023-12-28T00:57:35;2.70;1.00
20650;DHT22;10484;48.736;9.332;2023-12-28T01:00:00;2.60;1.00
20650;DHT22;10484;48.736;9.332;2023-12-28T01:02:27;2.60;1.00
20650;DHT22;10484;48.736;9.332;2023-12-28T01:04:53;2.60;1.00
20650;DHT22;10484;48.736;9.332;2023-12-28T01:07:18;2.50;1.00
20650;DHT22;10484;48.736;9.332;2023-12-28T01:09:44;2.50;1.00
20650;DHT22;10484;48.736;9.332;2023-12-28T01:12:10;2.50;1.00
20650;DHT22;10484;48.736;9.332;2023-12-28T01:14:35;2.50;1.00
20650;DHT22;10484;48.736;9.332;2023-12-28T01:17:01;2.40;1.00
20650;DHT22;10484;48.736;9.332;2023-12-28T01:19:27;2.40;1.30
20650;DHT22;10484;48.736;9.332;2023-12-28T01:21:52;2.40;1.90
20650;DHT22;10484;48.736;9.332;2023-12-28T01:24:18;2.40;2.10
20650;DHT22;10484;48.736;9.332;2023-12-28T01:26:43;2.40;2.50
20650;DHT22;10484;48.736;9.332;2023-12-28T01:29:09;2.40;2.70
20650;DHT22;10484;48.736;9.332;2023-12-28T01:31:35;2.40;3.00
20650;DHT22;10484;48.736;9.332;2023-12-28T01:34:00;2.40;3.00
20650;DHT22;10484;48.736;9.332;2023-12-28T01:36:26;2.40;3.10
20650;DHT22;10484;48.736;9.332;2023-12-28T01:38:52;2.40;3.40
20650;DHT22;10484;48.736;9.332;2023-12-28T01:41:17;2.40;3.60
20650;DHT22;10484;48.736;9.332;2023-12-28T01:43:43;2.40;3.90
20650;DHT22;10484;48.736;9.332;2023-12-28T01:46:17;2.40;4.40
20650;DHT22;10484;48.736;9.332;2023-12-28T01:48:45;2.40;4.60
20650;DHT22;10484;48.736;9.332;2023-12-28T01:51:12;2.40;5.00
20650;DHT22;10484;48.736;9.332;2023-12-28T01:53:39;2.40;5.40
20650;DHT22;10484;48.736;9.332;2023-12-28T01:56:05;2.40;5.90
20650;DHT22;10484;48.736;9.332;2023-12-28T01:58:33;2.40;6.20
20650;DHT22;10484;48.736;9.332;2023-12-28T02:00:59;2.40;6.40
20650;DHT22;10484;48.736;9.332;2023-12-28T02:03:26;2.40;6.70
20650;DHT22;10484;48.736;9.332;2023-12-28T02:05:52;2.40;7.00
20650;DHT22;10484;48.736;9.332;2023-12-28T02:08:17;2.40;7.40
20650;DHT22;10484;48.736;9.332;2023-12-28T02:10:43;2.40;7.60
20650;DHT22;10484;48.736;9.332;2023-12-28T02:13:09;2.40;7.60
20650;DHT22;10484;48.736;9.332;2023-12-28T02:15:35;2.40;7.60
20650;DHT22;10484;48.736;9.332;2023-12-28T02:18:12;2.40;7.60
20650;DHT22;10484;48.736;9.332;2023-12-28T02:20:39;2.30;7.60
20650;DHT22;10484;48.736;9.332;2023-12-28T02:23:05;2.30;7.50
20650;DHT22;10484;48.736;9.332;2023-12-28T02:25:32;2.30;7.50
20650;DHT22;10484;48.736;9.332;2023-12-28T02:27:58;2.30;7.60
20650;DHT22;10484;48.736;9.332;2023-12-28T02:30:24;2.20;7.70
20650;DHT22;10484;48.736;9.332;2023-12-28T02:32:56;2.20;7.70
20650;DHT22;10484;48.736;9.332;2023-12-28T02:35:29;2.20;7.70
20650;DHT22;10484;48.736;9.332;2023-12-28T02:38:01;2.10;7.80
20650;DHT22;10484;48.736;9.332;2023-12-28T02:40:27;2.10;7.90
20650;DHT22;10484;48.736;9.332;2023-12-28T02:42:54;2.10;7.80
20650;DHT22;10484;48.736;9.332;2023-12-28T02:45:20;2.10;7.80
20650;DHT22;10484;48.736;9.332;2023-12-28T02:47:45;2.10;8.00
20650;DHT22;10484;48.736;9.332;2023-12-28T02:50:11;2.10;11.00
20650;DHT22;10484;48.736;9.332;2023-12-28T02:52:37;2.10;8.30
20650;DHT22;10484;48.736;9.332;2023-12-28T02:55:21;2.10;8.60
20650;DHT22;10484;48.736;9.332;2023-12-28T02:57:46;2.10;8.60
20650;DHT22;10484;48.736;9.332;2023-12-28T03:00:12;2.00;8.80
20650;DHT22;10484;48.736;9.332;2023-12-28T03:02:38;2.00;8.90
20650;DHT22;10484;48.736;9.332;2023-12-28T03:05:04;2.00;9.20
20650;DHT22;10484;48.736;9.332;2023-12-28T03:07:31;2.00;9.10
20650;DHT22;10484;48.736;9.332;2023-12-28T03:09:57;2.00;8.90
20650;DHT22;10484;48.736;9.332;2023-12-28T03:12:22;1.90;9.00
20650;DHT22;10484;48.736;9.332;2023-12-28T03:14:48;1.90;9.10
20650;DHT22;10484;48.736;9.332;2023-12-28T03:17:13;2.00;9.30
20650;DHT22;10484;48.736;9.332;2023-12-28T03:19:39;1.90;9.40
20650;DHT22;10484;48.736;9.332;2023-12-28T03:22:05;1.90;9.60
20650;DHT22;10484;48.736;9.332;2023-12-28T03:24:30;2.00;10.00
20650;DHT22;10484;48.736;9.332;2023-12-28T03:26:56;1.90;10.00
20650;DHT22;10484;48.736;9.332;2023-12-28T03:29:22;1.90;9.90
20650;DHT22;10484;48.736;9.332;2023-12-28T03:31:47;1.90;9.80
20650;DHT22;10484;48.736;9.332;2023-12-28T03:34:13;1.90;9.90
20650;DHT22;10484;48.736;9.332;2023-12-28T03:36:39;1.90;10.10
20650;DHT22;10484;48.736;9.332;2023-12-28T03:39:04;1.90;10.00
20650;DHT22;10484;48.736;9.332;2023-12-28T03:41:31;1.90;10.30
20650;DHT22;10484;48.736;9.332;2023-12-28T03:43:56;1.90;10.50
20650;DHT22;10484;48.736;9.332;2023-12-28T03:46:22;1.80;10.90
20650;DHT22;10484;48.736;9.332;2023-12-28T03:48:47;1.90;11.20
20650;DHT22;10484;48.736;9.332;2023-12-28T03:51:14;1.80;11.20
20650;DHT22;10484;48.736;9.332;2023-12-28T03:53:41;1.80;11.30
20650;DHT22;10484;48.736;9.332;2023-12-28T03:56:06;1.80;11.30
20650;DHT22;10484;48.736;9.332;2023-12-28T03:58:32;1.80;11.70
20650;DHT22;10484;48.736;9.332;2023-12-28T04:00:58;1.80;12.00
20650;DHT22;10484;48.736;9.332;2023-12-28T04:03:23;1.80;12.20
20650;DHT22;10484;48.736;9.332;2023-12-28T04:05:50;1.80;12.50
20650;DHT22;10484;48.736;9.332;2023-12-28T04:08:16;1.80;12.60
20650;DHT22;10484;48.736;9.332;2023-12-28T04:10:42;1.80;12.70
20650;DHT22;10484;48.736;9.332;2023-12-28T04:13:07;1.80;13.10
20650;DHT22;10484;48.736;9.332;2023-12-28T04:15:33;1.70;13.40
20650;DHT22;10484;48.736;9.332;2023-12-28T04:17:59;1.80;13.90
20650;DHT22;10484;48.736;9.332;2023-12-28T04:23:47;1.80;14.30
20650;DHT22;10484;48.736;9.332;2023-12-28T04:26:12;1.80;14.20
20650;DHT22;10484;48.736;9.332;2023-12-28T04:28:39;1.70;14.70
20650;DHT22;10484;48.736;9.332;2023-12-28T04:31:05;1.80;15.20
20650;DHT22;10484;48.736;9.332;2023-12-28T04:33:31;1.80;15.80
20650;DHT22;10484;48.736;9.332;2023-12-28T04:35:57;1.80;16.30
20650;DHT22;10484;48.736;9.332;2023-12-28T04:38:25;1.70;16.60
20650;DHT22;10484;48.736;9.332;2023-12-28T04:40:51;1.70;17.10
20650;DHT22;10484;48.736;9.332;2023-12-28T04:43:16;1.80;17.50
20650;DHT22;10484;48.736;9.332;2023-12-28T04:45:42;1.70;17.70
20650;DHT22;10484;48.736;9.332;2023-12-28T04:48:08;1.80;18.30
20650;DHT22;10484;48.736;9.332;2023-12-28T04:50:33;1.80;18.80
20650;DHT22;10484;48.736;9.332;2023-12-28T04:52:59;1.80;19.30
20650;DHT22;10484;48.736;9.332;2023-12-28T04:55:24;1.80;20.20
20650;DHT22;10484;48.736;9.332;2023-12-28T04:57:50;1.80;21.20
20650;DHT22;10484;48.736;9.332;2023-12-28T05:00:16;1.80;22.30
20650;DHT22;10484;48.736;9.332;2023-12-28T05:02:41;1.90;23.50
20650;DHT22;10484;48.736;9.332;2023-12-28T05:05:07;1.80;24.50
20650;DHT22;10484;48.736;9.332;2023-12-28T05:07:34;1.80;25.90
20650;DHT22;10484;48.736;9.332;2023-12-28T05:10:01;1.90;27.30
20650;DHT22;10484;48.736;9.332;2023-12-28T05:12:26;1.90;28.40
20650;DHT22;10484;48.736;9.332;2023-12-28T05:14:52;1.90;29.10
20650;DHT22;10484;48.736;9.332;2023-12-28T05:17:18;1.90;29.60
20650;DHT22;10484;48.736;9.332;2023-12-28T05:19:43;1.90;29.90
20650;DHT22;10484;48.736;9.332;2023-12-28T05:22:09;1.90;30.00
20650;DHT22;10484;48.736;9.332;2023-12-28T05:24:36;1.90;30.00
20650;DHT22;10484;48.736;9.332;2023-12-28T05:27:02;1.90;30.20
20650;DHT22;10484;48.736;9.332;2023-12-28T05:29:28;1.90;30.30
20650;DHT22;10484;48.736;9.332;2023-12-28T05:31:53;1.90;30.50
20650;DHT22;10484;48.736;9.332;2023-12-28T05:34:19;1.90;30.60
20650;DHT22;10484;48.736;9.332;2023-12-28T05:36:44;1.90;30.60
20650;DHT22;10484;48.736;9.332;2023-12-28T05:39:11;1.90;30.60
20650;DHT22;10484;48.736;9.332;2023-12-28T05:41:39;1.90;30.80
20650;DHT22;10484;48.736;9.332;2023-12-28T05:44:05;1.90;30.60
20650;DHT22;10484;48.736;9.332;2023-12-28T05:46:30;1.90;30.80
20650;DHT22;10484;48.736;9.332;2023-12-28T05:48:56;1.90;30.70
20650;DHT22;10484;48.736;9.332;2023-12-28T05:51:22;1.90;30.60
20650;DHT22;10484;48.736;9.332;2023-12-28T05:53:47;1.90;30.60
20650;DHT22;10484;48.736;9.332;2023-12-28T05:56:13;2.00;31.00
20650;DHT22;10484;48.736;9.332;2023-12-28T05:58:38;2.00;30.80
20650;DHT22;10484;48.736;9.332;2023-12-28T06:01:04;2.00;31.00
20650;DHT22;10484;48.736;9.332;2023-12-28T06:03:33;2.00;30.70
20650;DHT22;10484;48.736;9.332;2023-12-28T06:05:58;2.00;30.70
20650;DHT22;10484;48.736;9.332;2023-12-28T06:08:24;2.10;30.90
20650;DHT22;10484;48.736;9.332;2023-12-28T06:10:50;2.10;30.90
20650;DHT22;10484;48.736;9.332;2023-12-28T06:13:15;2.10;30.80
20650;DHT22;10484;48.736;9.332;2023-12-28T06:15:41;2.10;30.90
20650;DHT22;10484;48.736;9.332;2023-12-28T06:18:06;2.10;30.90
20650;DHT22;10484;48.736;9.332;2023-12-28T06:20:32;2.10;30.80
20650;DHT22;10484;48.736;9.332;2023-12-28T06:22:58;2.10;31.20
20650;DHT22;10484;48.736;9.332;2023-12-28T06:25:23;2.10;30.90
20650;DHT22;10484;48.736;9.332;2023-12-28T06:27:56;2.10;30.90
20650;DHT22;10484;48.736;9.332;2023-12-28T06:30:21;2.10;30.80
20650;DHT22;10484;48.736;9.332;2023-12-28T06:32:47;2.20;30.90
20650;DHT22;10484;48.736;9.332;2023-12-28T06:35:13;2.20;31.20
20650;DHT22;10484;48.736;9.332;2023-12-28T06:37:38;2.20;30.90
20650;DHT22;10484;48.736;9.332;2023-12-28T06:40:04;2.20;30.90
20650;DHT22;10484;48.736;9.332;2023-12-28T06:42:30;2.20;30.90
20650;DHT22;10484;48.736;9.332;2023-12-28T06:44:55;2.20;30.90
20650;DHT22;10484;48.736;9.332;2023-12-28T06:47:21;2.20;30.90
20650;DHT22;10484;48.736;9.332;2023-12-28T06:49:46;2.20;31.00
20650;DHT22;10484;48.736;9.332;2023-12-28T06:52:12;2.20;30.90
20650;DHT22;10484;48.736;9.332;2023-12-28T06:54:37;2.30;31.00
20650;DHT22;10484;48.736;9.332;2023-12-28T06:57:15;2.30;31.00
20650;DHT22;10484;48.736;9.332;2023-12-28T06:59:40;2.30;31.00
20650;DHT22;10484;48.736;9.332;2023-12-28T07:02:06;2.30;31.00
20650;DHT22;10484;48.736;9.332;2023-12-28T07:04:32;2.30;31.00
20650;DHT22;10484;48.736;9.332;2023-12-28T07:06:58;2.40;31.00
20650;DHT22;10484;48.736;9.332;2023-12-28T07:09:24;2.40;31.00
20650;DHT22;10484;48.736;9.332;2023-12-28T07:11:49;2.40;31.10
20650;DHT22;10484;48.736;9.332;2023-12-28T07:14:15;2.40;31.30
20650;DHT22;10484;48.736;9.332;2023-12-28T07:16:40;2.40;31.10
20650;DHT22;10484;48.736;9.332;2023-12-28T07:19:06;2.40;31.00
20650;DHT22;10484;48.736;9.332;2023-12-28T07:21:32;2.40;31.30
20650;DHT22;10484;48.736;9.332;2023-12-28T07:23:57;2.40;31.10
20650;DHT22;10484;48.736;9.332;2023-12-28T07:26:23;2.40;31.10
20650;DHT22;10484;48.736;9.332;2023-12-28T07:28:48;2.40;31.30
20650;DHT22;10484;48.736;9.332;2023-12-28T07:31:27;2.40;31.00
20650;DHT22;10484;48.736;9.332;2023-12-28T07:33:54;2.50;31.20
20650;DHT22;10484;48.736;9.332;2023-12-28T07:36:20;2.50;31.20
20650;DHT22;10484;48.736;9.332;2023-12-28T07:38:45;2.50;31.50
20650;DHT22;10484;48.736;9.332;2023-12-28T07:41:11;2.50;32.90
20650;DHT22;10484;48.736;9.332;2023-12-28T07:43:36;2.50;35.90
20650;DHT22;10484;48.736;9.332;2023-12-28T07:46:02;2.50;38.90
20650;DHT22;10484;48.736;9.332;2023-12-28T07:48:29;2.50;40.40
20650;DHT22;10484;48.736;9.332;2023-12-28T07:50:56;2.50;41.90
20650;DHT22;10484;48.736;9.332;2023-12-28T07:53:22;2.60;44.10
20650;DHT22;10484;48.736;9.332;2023-12-28T07:55:48;2.60;45.00
20650;DHT22;10484;48.736;9.332;2023-12-28T07:58:14;2.60;46.70
20650;DHT22;10484;48.736;9.332;2023-12-28T08:00:39;2.60;49.30
20650;DHT22;10484;48.736;9.332;2023-12-28T08:03:05;2.70;50.80
20650;DHT22;10484;48.736;9.332;2023-12-28T08:05:30;2.70;51.70
20650;DHT22;10484;48.736;9.332;2023-12-28T08:07:56;2.70;52.80
20650;DHT22;10484;48.736;9.332;2023-12-28T08:10:21;2.80;53.80
20650;DHT22;10484;48.736;9.332;2023-12-28T08:12:47;2.80;54.40
20650;DHT22;10484;48.736;9.332;2023-12-28T08:15:13;2.80;55.10
20650;DHT22;10484;48.736;9.332;2023-12-28T08:17:38;2.80;55.90
20650;DHT22;10484;48.736;9.332;2023-12-28T08:20:10;2.80;56.50
20650;DHT22;10484;48.736;9.332;2023-12-28T08:22:35;2.80;57.30
20650;DHT22;10484;48.736;9.332;2023-12-28T08:25:01;2.90;60.70
20650;DHT22;10484;48.736;9.332;2023-12-28T08:27:27;2.90;64.50
20650;DHT22;10484;48.736;9.332;2023-12-28T08:29:52;2.90;66.80
20650;DHT22;10484;48.736;9.332;2023-12-28T08:32:18;2.90;68.20
20650;DHT22;10484;48.736;9.332;2023-12-28T08:34:43;3.00;70.00
20650;DHT22;10484;48.736;9.332;2023-12-28T08:37:09;3.00;71.20
20650;DHT22;10484;48.736;9.332;2023-12-28T08:39:34;3.00;73.80
20650;DHT22;10484;48.736;9.332;2023-12-28T08:42:00;3.00;77.20
20650;DHT22;10484;48.736;9.332;2023-12-28T08:44:26;3.10;80.70
20650;DHT22;10484;48.736;9.332;2023-12-28T08:46:52;3.10;84.60
20650;DHT22;10484;48.736;9.332;2023-12-28T08:49:17;3.20;91.30
20650;DHT22;10484;48.736;9.332;2023-12-28T08:51:43;3.20;89.70
20650;DHT22;10484;48.736;9.332;2023-12-28T08:54:08;3.20;90.60
20650;DHT22;10484;48.736;9.332;2023-12-28T08:56:35;3.30;92.30
20650;DHT22;10484;48.736;9.332;2023-12-28T08:59:00;3.30;93.40
20650;DHT22;10484;48.736;9.332;2023-12-28T09:01:26;3.30;94.50
20650;DHT22;10484;48.736;9.332;2023-12-28T09:03:53;3.40;96.10
20650;DHT22;10484;48.736;9.332;2023-12-28T09:06:19;3.40;96.70
20650;DHT22;10484;48.736;9.332;2023-12-28T09:08:47;3.50;97.50
20650;DHT22;10484;48.736;9.332;2023-12-28T09:11:13;3.40;98.70
20650;DHT22;10484;48.736;9.332;2023-12-28T09:13:40;3.50;99.90
20650;DHT22;10484;48.736;9.332;2023-12-28T09:16:08;3.50;99.90
20650;DHT22;10484;48.736;9.332;2023-12-28T09:18:34;3.50;99.90
20650;DHT22;10484;48.736;9.332;2023-12-28T09:21:03;3.50;99.90
20650;DHT22;10484;48.736;9.332;2023-12-28T09:23:29;3.50;99.90
20650;DHT22;10484;48.736;9.332;2023-12-28T09:25:54;3.60;99.90
20650;DHT22;10484;48.736;9.332;2023-12-28T09:28:20;3.60;99.90
20650;DHT22;10484;48.736;9.332;2023-12-28T09:30:45;3.60;99.90
20650;DHT22;10484;48.736;9.332;2023-12-28T09:33:48;3.70;99.90
20650;DHT22;10484;48.736;9.332;2023-12-28T09:36:14;3.70;99.80
20650;DHT22;10484;48.736;9.332;2023-12-28T09:38:40;3.80;99.90
20650;DHT22;10484;48.736;9.332;2023-12-28T09:41:13;3.80;99.90
20650;DHT22;10484;48.736;9.332;2023-12-28T09:46:18;3.90;99.90
20650;DHT22;10484;48.736;9.332;2023-12-28T09:48:44;3.90;99.90
20650;DHT22;10484;48.736;9.332;2023-12-28T09:51:10;3.90;99.90
20650;DHT22;10484;48.736;9.332;2023-12-28T09:53:36;4.00;99.90
20650;DHT22;10484;48.736;9.332;2023-12-28T09:56:02;4.00;99.90
20650;DHT22;10484;48.736;9.332;2023-12-28T09:58:29;4.00;99.90
20650;DHT22;10484;48.736;9.332;2023-12-28T10:00:57;4.00;99.90
20650;DHT22;10484;48.736;9.332;2023-12-28T10:03:22;4.10;98.10
20650;DHT22;10484;48.736;9.332;2023-12-28T10:05:48;4.10;97.80
20650;DHT22;10484;48.736;9.332;2023-12-28T10:08:15;4.20;97.20
20650;DHT22;10484;48.736;9.332;2023-12-28T10:10:42;4.20;96.80
20650;DHT22;10484;48.736;9.332;2023-12-28T10:13:08;4.20;96.50
20650;DHT22;10484;48.736;9.332;2023-12-28T10:15:35;4.30;96.30
20650;DHT22;10484;48.736;9.332;2023-12-28T10:18:01;4.30;95.90
20650;DHT22;10484;48.736;9.332;2023-12-28T10:20:28;4.40;95.60
20650;DHT22;10484;48.736;9.332;2023-12-28T10:22:54;4.50;94.90
20650;DHT22;10484;48.736;9.332;2023-12-28T10:25:20;4.50;95.50
20650;DHT22;10484;48.736;9.332;2023-12-28T10:27:46;4.60;95.00
20650;DHT22;10484;48.736;9.332;2023-12-28T10:30:11;4.60;94.90
20650;DHT22;10484;48.736;9.332;2023-12-28T10:32:40;4.70;94.70
20650;DHT22;10484;48.736;9.332;2023-12-28T10:35:06;4.70;93.50
20650;DHT22;10484;48.736;9.332;2023-12-28T10:37:32;4.80;94.20
20650;DHT22;10484;48.736;9.332;2023-12-28T10:40:00;4.90;93.10
20650;DHT22;10484;48.736;9.332;2023-12-28T10:42:32;4.90;92.50
20650;DHT22;10484;48.736;9.332;2023-12-28T10:45:10;4.90;91.70
20650;DHT22;10484;48.736;9.332;2023-12-28T10:47:43;4.90;91.40
20650;DHT22;10484;48.736;9.332;2023-12-28T10:50:11;5.00;92.00
20650;DHT22;10484;48.736;9.332;2023-12-28T10:52:36;5.00;92.80
20650;DHT22;10484;48.736;9.332;2023-12-28T11:00:32;5.10;92.30
20650;DHT22;10484;48.736;9.332;2023-12-28T11:03:03;5.20;91.80
20650;DHT22;10484;48.736;9.332;2023-12-28T11:05:33;5.20;92.20
20650;DHT22;10484;48.736;9.332;2023-12-28T11:07:59;5.30;91.60
20650;DHT22;10484;48.736;9.332;2023-12-28T11:10:26;5.30;91.60
20650;DHT22;10484;48.736;9.332;2023-12-28T11:12:54;5.30;91.40
20650;DHT22;10484;48.736;9.332;2023-12-28T11:15:21;5.40;92.00
20650;DHT22;10484;48.736;9.332;2023-12-28T11:17:49;5.40;90.60
20650;DHT22;10484;48.736;9.332;2023-12-28T11:20:15;5.40;89.70
20650;DHT22;10484;48.736;9.332;2023-12-28T11:22:41;5.50;90.10
20650;DHT22;10484;48.736;9.332;2023-12-28T11:25:17;5.50;88.30
20650;DHT22;10484;48.736;9.332;2023-12-28T11:27:46;5.60;89.40
20650;DHT22;10484;48.736;9.332;2023-12-28T11:30:12;5.60;93.00
20650;DHT22;10484;48.736;9.332;2023-12-28T11:32:41;5.60;92.80
20650;DHT22;10484;48.736;9.332;2023-12-28T11:35:13;5.60;93.40
20650;DHT22;10484;48.736;9.332;2023-12-28T11:37:46;5.70;93.00
20650;DHT22;10484;48.736;9.332;2023-12-28T11:40:13;5.80;93.60
20650;DHT22;10484;48.736;9.332;2023-12-28T11:42:52;5.80;92.50
20650;DHT22;10484;48.736;9.332;2023-12-28T11:45:22;5.80;89.80
20650;DHT22;10484;48.736;9.332;2023-12-28T11:47:59;5.90;84.00
20650;DHT22;10484;48.736;9.332;2023-12-28T11:50:26;5.90;77.40
20650;DHT22;10484;48.736;9.332;2023-12-28T11:52:51;6.00;75.20
20650;DHT22;10484;48.736;9.332;2023-12-28T11:55:23;6.00;76.10
20650;DHT22;10484;48.736;9.332;2023-12-28T11:57:49;6.00;75.90
20650;DHT22;10484;48.736;9.332;2023-12-28T12:00:15;6.00;75.60
20650;DHT22;10484;48.736;9.332;2023-12-28T12:02:44;6.10;76.40
20650;DHT22;10484;48.736;9.332;2023-12-28T12:05:14;6.10;77.50
20650;DHT22;10484;48.736;9.332;2023-12-28T12:07:40;6.10;79.00
20650;DHT22;10484;48.736;9.332;2023-12-28T12:10:06;6.10;79.60
20650;DHT22;10484;48.736;9.332;2023-12-28T12:12:31;6.10;81.40
20650;DHT22;10484;48.736;9.332;2023-12-28T12:14:57;6.20;85.80
20650;DHT22;10484;48.736;9.332;2023-12-28T12:17:23;6.20;87.40
20650;DHT22;10484;48.736;9.332;2023-12-28T12:19:50;6.20;89.80
20650;DHT22;10484;48.736;9.332;2023-12-28T12:22:18;6.20;91.10
20650;DHT22;10484;48.736;9.332;2023-12-28T12:24:47;6.20;90.80
20650;DHT22;10484;48.736;9.332;2023-12-28T12:33:42;6.20;92.30
20650;DHT22;10484;48.736;9.332;2023-12-28T12:36:08;6.20;93.70
20650;DHT22;10484;48.736;9.332;2023-12-28T12:38:33;6.30;94.70
20650;DHT22;10484;48.736;9.332;2023-12-28T12:40:59;6.30;96.00
20650;DHT22;10484;48.736;9.332;2023-12-28T12:43:25;6.30;96.80
20650;DHT22;10484;48.736;9.332;2023-12-28T12:45:52;6.30;97.30
20650;DHT22;10484;48.736;9.332;2023-12-28T12:48:18;6.40;99.30
20650;DHT22;10484;48.736;9.332;2023-12-28T12:50:44;6.40;99.90
20650;DHT22;10484;48.736;9.332;2023-12-28T12:53:10;6.40;99.90
20650;DHT22;10484;48.736;9.332;2023-12-28T12:55:37;6.40;99.90
20650;DHT22;10484;48.736;9.332;2023-12-28T12:58:10;6.50;99.90
20650;DHT22;10484;48.736;9.332;2023-12-28T13:00:38;6.50;99.90
20650;DHT22;10484;48.736;9.332;2023-12-28T13:03:07;6.50;99.90
20650;DHT22;10484;48.736;9.332;2023-12-28T13:05:35;6.50;99.90
20650;DHT22;10484;48.736;9.332;2023-12-28T13:08:01;6.50;99.90
20650;DHT22;10484;48.736;9.332;2023-12-28T13:10:26;6.50;99.90
20650;DHT22;10484;48.736;9.332;2023-12-28T13:12:52;6.50;99.90
20650;DHT22;10484;48.736;9.332;2023-12-28T13:15:18;6.50;99.90
20650;DHT22;10484;48.736;9.332;2023-12-28T13:17:44;6.50;99.90
20650;DHT22;10484;48.736;9.332;2023-12-28T13:20:10;6.50;99.90
20650;DHT22;10484;48.736;9.332;2023-12-28T13:22:36;6.50;99.90
20650;DHT22;10484;48.736;9.332;2023-12-28T13:25:01;6.60;99.90
20650;DHT22;10484;48.736;9.332;2023-12-28T13:27:27;6.60;99.90
20650;DHT22;10484;48.736;9.332;2023-12-28T13:29:54;6.60;99.90
20650;DHT22;10484;48.736;9.332;2023-12-28T13:32:20;6.60;99.90
20650;DHT22;10484;48.736;9.332;2023-12-28T13:34:46;6.60;99.90
20650;DHT22;10484;48.736;9.332;2023-12-28T13:37:12;6.60;99.90
20650;DHT22;10484;48.736;9.332;2023-12-28T13:39:37;6.60;99.90
20650;DHT22;10484;48.736;9.332;2023-12-28T13:42:07;6.60;99.90
20650;DHT22;10484;48.736;9.332;2023-12-28T13:44:34;6.60;99.90
20650;DHT22;10484;48.736;9.332;2023-12-28T13:47:01;6.60;99.90
20650;DHT22;10484;48.736;9.332;2023-12-28T13:49:26;6.70;99.90
20650;DHT22;10484;48.736;9.332;2023-12-28T13:51:52;6.70;99.90
20650;DHT22;10484;48.736;9.332;2023-12-28T13:54:18;6.70;99.90
20650;DHT22;10484;48.736;9.332;2023-12-28T13:56:47;6.70;99.90
20650;DHT22;10484;48.736;9.332;2023-12-28T13:59:13;6.80;99.90
20650;DHT22;10484;48.736;9.332;2023-12-28T14:01:39;6.80;99.90
20650;DHT22;10484;48.736;9.332;2023-12-28T14:04:05;6.80;99.90
20650;DHT22;10484;48.736;9.332;2023-12-28T14:06:31;6.80;99.90
20650;DHT22;10484;48.736;9.332;2023-12-28T14:08:57;6.80;99.90
20650;DHT22;10484;48.736;9.332;2023-12-28T14:11:23;6.80;99.90
20650;DHT22;10484;48.736;9.332;2023-12-28T14:13:49;6.80;99.90
20650;DHT22;10484;48.736;9.332;2023-12-28T14:16:14;6.80;99.90
20650;DHT22;10484;48.736;9.332;2023-12-28T14:18:40;6.80;99.90
20650;DHT22;10484;48.736;9.332;2023-12-28T14:21:10;6.80;99.90
20650;DHT22;10484;48.736;9.332;2023-12-28T14:23:38;6.90;99.90
20650;DHT22;10484;48.736;9.332;2023-12-28T14:26:14;6.90;99.90
20650;DHT22;10484;48.736;9.332;2023-12-28T14:28:41;6.90;99.90
20650;DHT22;10484;48.736;9.332;2023-12-28T14:37:51;6.90;99.90
20650;DHT22;10484;48.736;9.332;2023-12-28T14:40:17;6.80;99.90
20650;DHT22;10484;48.736;9.332;2023-12-28T14:42:42;6.90;99.90
20650;DHT22;10484;48.736;9.332;2023-12-28T14:45:08;6.90;99.90
20650;DHT22;10484;48.736;9.332;2023-12-28T14:47:34;6.90;99.90
20650;DHT22;10484;48.736;9.332;2023-12-28T14:50:01;6.80;99.90
20650;DHT22;10484;48.736;9.332;2023-12-28T14:52:27;6.90;99.90
20650;DHT22;10484;48.736;9.332;2023-12-28T14:54:53;6.90;99.90
20650;DHT22;10484;48.736;9.332;2023-12-28T14:57:22;6.90;99.90
20650;DHT22;10484;48.736;9.332;2023-12-28T14:59:47;7.00;99.90
20650;DHT22;10484;48.736;9.332;2023-12-28T15:02:13;7.00;99.90
20650;DHT22;10484;48.736;9.332;2023-12-28T15:04:38;7.00;99.90
20650;DHT22;10484;48.736;9.332;2023-12-28T15:07:06;7.00;99.90
20650;DHT22;10484;48.736;9.332;2023-12-28T15:09:31;7.00;99.90
20650;DHT22;10484;48.736;9.332;2023-12-28T15:11:57;7.00;99.90
20650;DHT22;10484;48.736;9.332;2023-12-28T15:14:24;7.00;99.90
20650;DHT22;10484;48.736;9.332;2023-12-28T15:16:51;7.00;99.90
20650;DHT22;10484;48.736;9.332;2023-12-28T15:19:17;6.90;99.90
20650;DHT22;10484;48.736;9.332;2023-12-28T15:21:43;6.90;99.90
20650;DHT22;10484;48.736;9.332;2023-12-28T15:24:09;6.90;99.90
20650;DHT22;10484;48.736;9.332;2023-12-28T15:26:34;7.00;99.90
20650;DHT22;10484;48.736;9.332;2023-12-28T15:29:00;7.00;99.90
20650;DHT22;10484;48.736;9.332;2023-12-28T15:31:25;7.00;99.90
20650;DHT22;10484;48.736;9.332;2023-12-28T15:33:51;7.00;99.90
20650;DHT22;10484;48.736;9.332;2023-12-28T15:36:18;7.00;99.90
20650;DHT22;10484;48.736;9.332;2023-12-28T15:38:43;7.00;99.90
20650;DHT22;10484;48.736;9.332;2023-12-28T15:41:09;7.00;99.90
20650;DHT22;10484;48.736;9.332;2023-12-28T15:43:35;7.00;99.90
20650;DHT22;10484;48.736;9.332;2023-12-28T15:46:00;7.00;99.90
20650;DHT22;10484;48.736;9.332;2023-12-28T15:48:26;7.00;99.90
20650;DHT22;10484;48.736;9.332;2023-12-28T15:50:52;7.00;99.90
20650;DHT22;10484;48.736;9.332;2023-12-28T15:53:17;7.00;99.90
20650;DHT22;10484;48.736;9.332;2023-12-28T15:55:43;7.00;99.90
20650;DHT22;10484;48.736;9.332;2023-12-28T15:58:08;7.00;99.90
20650;DHT22;10484;48.736;9.332;2023-12-28T16:00:34;7.00;99.90
20650;DHT22;10484;48.736;9.332;2023-12-28T16:03:00;7.00;99.90
20650;DHT22;10484;48.736;9.332;2023-12-28T16:05:26;7.10;99.90
20650;DHT22;10484;48.736;9.332;2023-12-28T16:07:52;7.10;99.90
20650;DHT22;10484;48.736;9.332;2023-12-28T16:10:17;7.10;99.90
20650;DHT22;10484;48.736;9.332;2023-12-28T16:12:43;7.10;99.90